Berkeley Springs, WV

10:04 AM EST on January 26, 2015 (GMT -0500)
Eastern W Va Regional-Shepherd | Change Station
CLOSE
Current Station
Airport
Location: Martinsburg,
Elevation: 531 ft
Nearby Weather Stations
Active Advisory: Winter Storm Warning Active Notice: Public Information Statement

Elev 531 ft 39.40 °N, 77.98 °W | Updated 11 minutes ago

Snow
Snow
30 °F
Feels Like 22 °F
N
8
Wind Variable Wind from North

Today
High -- | Low -- °F
--% Chance of Precip.
Yesterday
High -- | Low -- °F
Precip. -- in
7:25 AM 5:25 PM
Waxing Crescent, 44% visible
Pressure 29.81 in
Visibility 1.0 miles
Clouds Overcast 600 ft
Windchill 22 °F
Dew Point 26 °F
Humidity 85%
Rainfall 0.02 in
Snow Depth Not available.
UV 1 out of 12
Pollen .10 out of 12
Air Quality Not available.
Flu Activity Not available.
METAR KMRB 261453Z 01007KT 1SM -SN BR OVC006 M01/M03 A2979 RMK AO2 CIG 005V010 SLP094 P0000 60000 T10111033 51006

More Conditions Fewer Conditions

Pressure 29.81 in
Visibility 1.0 miles
Clouds Overcast 600 ft
Windchill 22 °F
Dew Point 26 °F
Humidity 85%
Rainfall 0.02 in
Snow Depth Not available.
UV 1 out of 12
Pollen .10 out of 12
Air Quality Not available.
Flu Activity Not available.
METAR KMRB 261453Z 01007KT 1SM -SN BR OVC006 M01/M03 A2979 RMK AO2 CIG 005V010 SLP094 P0000 60000 T10111033 51006

More Conditions Fewer Conditions

10-Day Weather Forecast

Almanac

Astronomy

Jan. 26, 2015 Rise Set
Actual Time
Civil Twilight
Nautical Twilight
Astronomical Twilight
Moon
Length of Visible Light
Length of Day
Tomorrow will be .
, % of the Moon is Illuminated

Today's Extremes

State Highs State Lows

Community

WunderPhotos

Upload Photos

1,790,232 photos uploaded!

WunderBlogs® & News

Nearby

Air Quality

  Air Quality AQ Index Pollutant
Not available.

Snow Depth

Station Depth Elevation

Earthquake Activity

City Distance Mag. Time & Date
Minimum magnitude displayed is 2.5.

Coastal Water Temperatures

Place Temperature

Nearby Weather Stations